Terminal Aerodrome Forecast
Issued by NWS

Home | Current Version | Previous Version | Text Only | Print | Product List | Glossary On
Versions: 1 2 3 4 5 6 7 8 9 10 11 12 13 14 15 16 17 18
000
FTAK31 PAFA 271121
TAFASC
TAF
PASC 271121Z 2712/2812 17008KT P6SM BKN250
     FM271800 22013KT P6SM BKN250
     FM280000 23013KT P6SM OVC100
     FM280900 31010KT 2SM BR BKN005 OVC080=

USA.gov is the U.S. government's official web portal to all federal, state and local government web resources and services.